Time;durP1;ratioP1;P1;durP2;ratioP2;P2;SDS_P1;SDS_P2;PMS_P1;PMS_P2;Temp;Humidity;BMP_temperature;BMP_pressure;BME280_temperature;BME280_humidity;BME280_pressure;Samples;Min_cycle;Max_cycle;Signal;HPM_P1;HPM_P2
2023/10/25 00:00:49;;;;;;;2.30;1.63;;;14.80;99.90;;;14.49;67.06;97661.81;4970274;28;122845;-80
2023/10/25 00:03:18;;;;;;;2.30;1.30;;;15.60;99.90;;;14.49;67.31;97659.03;4967753;28;115146;-81
2023/10/25 00:05:47;;;;;;;1.73;1.40;;;16.60;99.90;;;14.49;67.34;97661.81;4968814;28;114400;-84
2023/10/25 00:08:16;;;;;;;1.30;1.20;;;14.20;99.90;;;14.48;67.10;97654.63;4970484;28;123142;-83
2023/10/25 00:10:42;;;;;;;2.40;1.80;;;15.40;99.90;;;14.47;67.21;97637.16;4965627;28;124419;-83
2023/10/25 00:13:09;;;;;;;1.70;1.60;;;15.70;99.90;;;14.44;67.19;97635.13;4968415;28;114035;-84
2023/10/25 00:15:35;;;;;;;2.70;1.20;;;15.50;99.90;;;14.42;67.26;97640.22;4968710;28;114153;-84
2023/10/25 00:18:02;;;;;;;1.73;1.40;;;16.20;99.90;;;14.40;67.37;97631.47;4968730;28;124096;-81
2023/10/25 00:20:28;;;;;;;1.73;1.57;;;14.20;99.90;;;14.38;67.28;97622.69;4968340;28;123921;-83
2023/10/25 00:22:55;;;;;;;2.70;1.60;;;16.40;99.90;;;14.37;67.15;97618.28;4968454;28;114229;-84
2023/10/25 00:25:21;;;;;;;3.27;1.50;;;14.20;99.90;;;14.35;66.96;97615.09;4963137;28;113838;-82
2023/10/25 00:27:48;;;;;;;1.73;1.30;;;14.40;99.90;;;14.36;67.19;97620.28;4962034;28;124389;-84
2023/10/25 00:30:14;;;;;;;1.60;1.40;;;15.50;99.90;;;14.36;67.24;97613.91;4963504;28;123665;-81
2023/10/25 00:32:43;;;;;;;1.60;1.30;;;15.10;99.90;;;14.36;67.15;97619.47;4969684;28;114300;-84
2023/10/25 00:35:10;;;;;;;1.40;1.20;;;16.30;99.90;;;14.36;67.15;97619.47;4970854;28;113740;-85
2023/10/25 00:37:39;;;;;;;1.90;1.50;;;16.30;99.90;;;14.35;67.11;97615.09;4972621;28;123851;-83
2023/10/25 00:40:07;;;;;;;1.50;1.30;;;15.50;99.90;;;14.34;67.10;97616.25;4955856;28;124077;-83
2023/10/25 00:42:33;;;;;;;1.77;1.60;;;14.10;99.90;;;14.32;67.09;97608.28;4968219;28;114408;-81
2023/10/25 00:45:00;;;;;;;2.23;1.70;;;15.80;99.90;;;14.34;67.14;97608.72;4968900;28;113834;-82
2023/10/25 00:47:26;;;;;;;3.20;1.60;;;16.40;99.90;;;14.35;67.32;97609.53;4968390;28;123323;-80
2023/10/25 00:49:53;;;;;;;2.13;1.60;;;15.80;99.90;;;14.36;67.30;97613.91;4967608;28;123960;-83
2023/10/25 00:52:19;;;;;;;2.47;1.70;;;15.90;99.90;;;14.34;67.17;97613.47;4967709;28;115231;-82
2023/10/25 00:54:47;;;;;;;3.00;1.73;;;15.20;99.90;;;14.36;67.12;97625.84;4965202;28;114900;-85
2023/10/25 00:57:14;;;;;;;2.20;1.60;;;14.10;99.90;;;14.35;67.24;97620.66;4956247;28;123995;-81
2023/10/25 00:59:41;;;;;;;2.50;1.30;;;14.10;99.90;;;14.33;67.30;97617.44;4964399;28;123592;-83
2023/10/25 01:02:08;;;;;;;2.40;1.50;;;14.10;99.90;;;14.33;67.37;97618.22;4968291;28;114472;-83
2023/10/25 01:04:35;;;;;;;2.80;1.90;;;14.10;99.90;;;14.32;67.38;97619.41;4968757;28;115553;-80
2023/10/25 01:07:02;;;;;;;1.77;1.53;;;16.60;99.90;;;14.32;67.56;97615.84;4967742;28;124113;-80
2023/10/25 01:09:30;;;;;;;2.70;1.83;;;14.10;99.90;;;14.33;67.35;97625.75;4966794;28;124131;-80
2023/10/25 01:11:57;;;;;;;2.40;1.60;;;14.10;99.90;;;14.29;67.41;97617.38;4963969;28;114413;-82
2023/10/25 01:14:29;;;;;;;2.30;2.03;;;14.10;99.90;;;14.28;67.37;97612.97;4967865;28;116662;-81
2023/10/25 01:16:58;;;;;;;2.47;1.70;;;14.00;99.90;;;14.28;67.29;97612.16;4964524;28;123848;-80
2023/10/25 01:19:28;;;;;;;2.40;1.70;;;14.00;99.90;;;14.22;67.69;97614.44;4966771;28;124157;-82
2023/10/25 01:21:54;;;;;;;5.70;1.60;;;12.00;99.90;;;14.21;67.59;97612.00;4968066;28;114146;-81
2023/10/25 01:24:22;;;;;;;2.93;2.00;;;15.50;99.90;;;14.19;67.66;97625.47;4963597;28;114193;-81
2023/10/25 01:26:48;;;;;;;1.70;1.60;;;14.00;99.90;;;14.17;67.63;97644.47;4947503;28;123815;-80
2023/10/25 01:29:15;;;;;;;2.83;2.07;;;14.00;99.90;;;14.12;67.56;97642.78;4961208;28;123657;-79
2023/10/25 01:31:44;;;;;;;2.07;1.27;;;13.90;99.90;;;14.09;67.65;97636.00;4969493;28;113651;-81
2023/10/25 01:34:10;;;;;;;2.30;1.90;;;15.20;99.90;;;14.04;67.71;97633.50;4966402;28;113856;-82
2023/10/25 01:36:39;;;;;;;1.90;1.70;;;14.10;99.90;;;14.02;67.61;97621.94;4971202;28;124187;-80
2023/10/25 01:39:06;;;;;;;1.90;1.60;;;13.90;99.90;;;13.99;67.63;97622.69;4972771;28;123772;-80
2023/10/25 01:41:32;;;;;;;3.50;2.10;;;16.30;99.90;;;13.97;67.68;97613.94;4970875;28;115326;-80
2023/10/25 01:43:59;;;;;;;1.97;1.77;;;14.70;99.90;;;13.93;67.61;97615.81;4962277;28;115024;-82
2023/10/25 01:46:28;;;;;;;2.03;1.83;;;13.80;99.90;;;13.95;67.48;97621.81;4966297;28;124001;-81
2023/10/25 01:48:55;;;;;;;1.93;1.47;;;13.70;99.90;;;13.91;67.49;97627.25;4965089;28;124303;-79
2023/10/25 01:51:24;;;;;;;2.97;1.93;;;13.80;99.90;;;13.89;67.55;97626.84;4965880;28;114078;-80
2023/10/25 01:53:50;;;;;;;2.67;1.63;;;13.70;99.90;;;13.83;67.74;97624.69;4967320;28;113960;-80
2023/10/25 01:56:17;;;;;;;2.53;2.10;;;13.70;99.90;;;13.82;67.77;97620.31;4968449;28;124079;-80
2023/10/25 01:58:43;;;;;;;2.17;1.97;;;13.70;99.90;;;13.78;67.82;97624.97;4971140;28;123682;-80
2023/10/25 02:01:10;;;;;;;2.50;1.63;;;13.60;99.90;;;13.78;67.71;97620.25;4962596;28;114569;-84
2023/10/25 02:03:36;;;;;;;1.73;1.60;;;13.60;99.90;;;13.79;67.77;97618.28;4971345;28;114001;-80
2023/10/25 02:06:15;;;;;;;3.13;1.77;;;14.20;99.90;;;13.79;67.58;97618.28;4969853;28;124588;-79
2023/10/25 02:08:42;;;;;;;2.53;1.87;;;16.10;99.90;;;13.79;67.66;97615.50;4982403;28;123068;-79
2023/10/25 02:11:08;;;;;;;2.47;1.93;;;13.50;99.90;;;13.78;67.66;97619.44;4971260;28;113989;-81
2023/10/25 02:13:35;;;;;;;1.93;1.60;;;15.90;99.90;;;13.78;67.76;97613.88;4970610;28;114349;-80
2023/10/25 02:16:16;;;;;;;2.83;1.97;;;15.50;99.90;;;13.77;67.51;97620.59;4970585;28;123224;-81
2023/10/25 02:18:42;;;;;;;2.23;1.70;;;15.30;99.90;;;13.70;67.54;97610.97;4993234;28;122847;-80
2023/10/25 02:21:10;;;;;;;2.50;1.80;;;13.50;99.90;;;13.66;67.78;97604.50;4974463;28;113542;-80
2023/10/25 02:23:39;;;;;;;2.27;2.03;;;13.50;99.90;;;13.65;67.83;97602.13;4969729;28;113992;-81
2023/10/25 02:26:06;;;;;;;2.00;1.73;;;13.50;99.90;;;13.67;67.84;97596.97;4970495;28;123749;-80
2023/10/25 02:28:32;;;;;;;2.90;1.50;;;15.20;99.90;;;13.67;67.91;97597.81;4971873;28;123693;-81
2023/10/25 02:31:00;;;;;;;1.93;1.63;;;15.80;99.90;;;13.67;67.69;97591.44;4969752;28;115009;-79
2023/10/25 02:33:27;;;;;;;2.00;1.70;;;13.50;99.90;;;13.69;67.58;97591.88;4969082;28;114156;-80
2023/10/25 02:35:56;;;;;;;2.17;1.80;;;13.50;99.90;;;13.67;67.41;97583.94;4967277;28;124108;-80
2023/10/25 02:38:23;;;;;;;3.10;2.17;;;13.80;99.90;;;13.66;67.60;97592.59;4969113;28;123104;-79
2023/10/25 02:40:52;;;;;;;1.63;1.53;;;13.50;99.90;;;13.64;67.16;97581.06;4970177;28;114334;-79
2023/10/25 02:43:21;;;;;;;2.47;1.40;;;14.60;99.90;;;13.61;67.16;97596.47;4971500;28;113050;-80
2023/10/25 02:45:47;;;;;;;2.30;1.60;;;15.70;99.90;;;13.56;67.20;97580.09;4970052;28;123212;-80
2023/10/25 02:48:16;;;;;;;2.43;1.97;;;13.50;99.90;;;13.55;67.29;97581.28;4969054;28;123616;-80
2023/10/25 02:50:43;;;;;;;2.20;1.83;;;14.70;99.90;;;13.54;67.57;97571.34;4970600;28;114068;-82
2023/10/25 02:53:12;;;;;;;2.13;1.83;;;13.40;99.90;;;13.52;67.26;97565.34;4971008;28;114041;-82
2023/10/25 02:55:39;;;;;;;2.20;1.70;;;14.00;99.90;;;13.47;67.33;97568.41;4963887;28;124214;-80
2023/10/25 02:58:08;;;;;;;3.07;1.90;;;15.20;99.90;;;13.45;67.17;97567.94;4970086;28;124536;-80
2023/10/25 03:00:37;;;;;;;1.83;1.57;;;15.20;99.90;;;13.45;67.42;97570.72;4970226;28;114871;-81
2023/10/25 03:03:03;;;;;;;4.30;1.60;;;14.60;99.90;;;13.44;67.32;97563.56;4970591;28;113841;-81
2023/10/25 03:05:32;;;;;;;2.97;1.57;;;13.60;99.90;;;13.41;67.28;97559.56;4969683;28;124061;-79
2023/10/25 03:07:59;;;;;;;1.70;1.40;;;13.20;99.90;;;13.39;67.24;97555.53;4966814;28;124294;-81
2023/10/25 03:10:27;;;;;;;5.13;1.50;;;14.70;99.90;;;13.37;67.28;97561.44;4962051;28;115004;-81
2023/10/25 03:12:56;;;;;;;1.90;1.70;;;14.90;99.90;;;13.37;67.42;97549.53;4970832;28;114050;-83
2023/10/25 03:15:22;;;;;;;3.80;1.43;;;15.00;99.90;;;13.36;67.44;97545.97;4969189;28;123428;-80
2023/10/25 03:17:51;;;;;;;1.80;1.50;;;15.30;99.90;;;13.38;67.40;97540.03;4968334;28;123914;-79
2023/10/25 03:20:20;;;;;;;3.33;1.73;;;13.20;99.90;;;13.40;67.22;97548.81;4969138;28;115688;-84
2023/10/25 03:22:47;;;;;;;2.20;1.90;;;13.20;99.90;;;13.39;67.48;97539.69;4968233;28;114851;-80
2023/10/25 03:25:13;;;;;;;2.37;1.70;;;13.20;99.90;;;13.42;67.22;97538.16;4970156;28;123092;-80
2023/10/25 03:27:40;;;;;;;2.70;1.47;;;13.20;99.90;;;13.42;67.22;97536.19;4969895;28;123746;-80
2023/10/25 03:30:08;;;;;;;2.20;1.67;;;13.20;99.90;;;13.43;67.43;97539.75;4970100;28;114231;-80
2023/10/25 03:32:34;;;;;;;2.13;1.93;;;11.70;99.70;;;13.43;67.30;97525.88;4972509;28;112656;-84
2023/10/25 03:35:02;;;;;;;2.13;1.83;;;14.30;99.90;;;13.43;67.25;97531.44;4962712;28;124023;-81
2023/10/25 03:37:29;;;;;;;1.93;1.43;;;13.20;99.90;;;13.44;67.29;97531.09;4968682;28;123299;-79
2023/10/25 03:39:56;;;;;;;2.93;2.10;;;14.00;99.90;;;13.47;67.21;97529.56;5004120;28;113373;-79
2023/10/25 03:42:23;;;;;;;2.07;1.70;;;13.20;99.90;;;13.47;67.22;97524.00;4966369;28;113444;-79
2023/10/25 03:44:49;;;;;;;2.20;1.80;;;14.10;99.90;;;13.43;67.31;97532.25;4987605;28;124151;-80
2023/10/25 03:47:16;;;;;;;2.43;1.80;;;13.20;99.90;;;13.45;67.31;97531.88;4969167;28;124057;-83
2023/10/25 03:49:42;;;;;;;2.90;1.70;;;13.20;99.90;;;13.45;67.37;97531.88;4970635;28;114025;-79
2023/10/25 03:52:09;;;;;;;2.43;1.63;;;14.80;99.90;;;13.43;67.28;97532.25;4969726;28;114097;-80
2023/10/25 03:54:39;;;;;;;2.27;1.53;;;13.20;99.90;;;13.45;67.27;97531.88;4967941;28;124073;-80
2023/10/25 03:57:05;;;;;;;3.23;2.00;;;14.10;99.90;;;13.43;67.33;97528.66;4968448;28;124787;-80
2023/10/25 03:59:32;;;;;;;1.60;1.40;;;13.20;99.90;;;13.41;67.30;97522.69;4967231;28;113759;-82
2023/10/25 04:01:59;;;;;;;2.27;1.80;;;14.40;99.90;;;13.42;67.26;97524.28;4970467;28;113107;-80
2023/10/25 04:04:30;;;;;;;2.63;1.83;;;14.90;99.90;;;13.40;67.39;97526.63;4968885;28;124414;-80
2023/10/25 04:06:57;;;;;;;2.83;2.10;;;14.50;99.90;;;13.36;67.35;97521.00;4967728;28;124861;-80
2023/10/25 04:09:23;;;;;;;2.30;1.87;;;13.20;99.90;;;13.31;67.21;97515.72;4960009;28;115015;-81
2023/10/25 04:11:50;;;;;;;2.10;1.37;;;13.20;99.90;;;13.32;67.31;97510.97;4964950;28;114842;-81
2023/10/25 04:14:19;;;;;;;2.63;1.50;;;13.10;99.90;;;13.29;67.28;97512.50;4967011;28;123299;-80
2023/10/25 04:16:48;;;;;;;2.73;1.93;;;13.10;99.90;;;13.28;67.10;97521.19;4977554;28;123306;-79
2023/10/25 04:19:15;;;;;;;2.10;1.80;;;13.00;99.90;;;13.24;67.06;97521.06;4968630;28;113646;-80
2023/10/25 04:21:41;;;;;;;2.70;2.10;;;13.00;99.90;;;13.21;67.04;97514.28;4969479;28;114017;-80
2023/10/25 04:24:12;;;;;;;1.77;1.67;;;13.70;99.90;;;13.16;66.99;97500.69;4966927;28;123994;-80
2023/10/25 04:26:39;;;;;;;2.00;1.70;;;14.80;99.90;;;13.15;66.88;97506.63;4977884;28;123823;-80
2023/10/25 04:29:05;;;;;;;2.43;2.10;;;14.60;99.90;;;13.12;67.08;97497.03;4980317;28;112521;-82
2023/10/25 04:31:32;;;;;;;1.90;1.70;;;11.60;99.70;;;13.12;66.98;97508.13;4969699;28;114453;-80
2023/10/25 04:33:59;;;;;;;1.80;1.60;;;13.60;99.90;;;13.11;66.72;97512.09;4963077;28;123863;-80
2023/10/25 04:36:26;;;;;;;1.93;1.40;;;12.90;99.90;;;13.08;66.78;97498.91;4970391;28;124099;-81
2023/10/25 04:38:53;;;;;;;2.00;1.57;;;12.90;99.90;;;13.08;66.69;97496.16;4971681;28;114263;-85
2023/10/25 04:41:19;;;;;;;2.73;1.70;;;12.90;99.90;;;13.10;66.77;97493.03;4972778;28;112821;-82
2023/10/25 04:43:47;;;;;;;2.57;1.90;;;14.50;99.90;;;13.07;66.64;97486.22;4968371;28;124239;-81
2023/10/25 04:46:15;;;;;;;2.30;1.60;;;12.90;99.90;;;13.05;66.51;97483.00;4967213;28;122792;-80
2023/10/25 04:48:41;;;;;;;3.80;2.17;;;12.90;99.90;;;13.05;66.54;97475.47;4967628;28;114395;-80
2023/10/25 04:51:12;;;;;;;1.80;1.70;;;12.90;99.90;;;13.05;66.50;97469.13;4969506;28;113948;-80
2023/10/25 04:53:40;;;;;;;2.53;2.00;;;14.10;99.90;;;13.04;66.34;97470.31;4998066;28;123793;-80
2023/10/25 04:56:07;;;;;;;2.00;1.80;;;15.30;99.90;;;13.02;66.50;97473.44;4968778;28;124171;-80
2023/10/25 04:58:38;;;;;;;2.17;1.80;;;13.00;99.90;;;13.00;66.30;97461.94;4968005;28;114962;-81
2023/10/25 05:01:12;;;;;;;2.20;1.87;;;14.80;99.90;;;12.95;66.58;97462.22;4968776;28;114936;-80
2023/10/25 05:03:38;;;;;;;2.93;1.80;;;14.10;99.90;;;12.96;66.48;97457.47;4968318;28;124546;-79
2023/10/25 05:06:08;;;;;;;2.13;1.80;;;12.70;99.70;;;12.94;66.42;97452.25;4968486;28;123817;-80
2023/10/25 05:08:39;;;;;;;2.20;1.77;;;12.80;99.90;;;12.95;66.32;97451.13;4970655;28;115483;-81
2023/10/25 05:11:11;;;;;;;2.90;2.00;;;12.70;99.80;;;12.96;66.24;97449.16;4968349;28;113948;-80
2023/10/25 05:13:38;;;;;;;2.73;2.00;;;12.70;99.80;;;12.95;66.22;97441.97;4968323;28;123207;-80
2023/10/25 05:16:05;;;;;;;2.20;1.73;;;12.60;99.70;;;12.93;66.33;97445.13;4968629;28;123887;-80
2023/10/25 05:18:32;;;;;;;2.97;2.07;;;12.70;99.70;;;12.92;66.25;97443.53;4986579;28;113710;-80
2023/10/25 05:21:01;;;;;;;1.83;1.60;;;12.70;99.70;;;12.90;66.15;97439.50;4971496;28;113931;-80
2023/10/25 05:23:32;;;;;;;2.70;1.93;;;12.70;99.70;;;12.89;66.11;97444.22;4970169;28;122543;-80
2023/10/25 05:26:02;;;;;;;2.23;1.70;;;12.70;99.60;;;12.85;66.20;97437.81;4961914;28;123053;-80
2023/10/25 05:28:35;;;;;;;2.03;1.53;;;12.70;99.60;;;12.83;66.06;97432.63;4968554;28;114922;-80
2023/10/25 05:31:04;;;;;;;2.43;1.67;;;11.00;98.90;;;12.82;65.91;97433.78;4980673;28;112211;-81
2023/10/25 05:33:32;;;;;;;2.40;1.67;;;12.60;99.50;;;12.79;65.92;97431.75;4954210;28;123332;-80
2023/10/25 05:36:00;;;;;;;3.33;2.13;;;12.60;99.50;;;12.78;65.92;97430.13;4958548;28;123687;-80
2023/10/25 05:38:32;;;;;;;2.20;1.70;;;9.90;98.80;;;12.76;65.61;97418.63;4968510;28;113421;-86
2023/10/25 05:40:59;;;;;;;2.10;1.90;;;12.60;99.50;;;12.74;65.92;97426.47;4954545;28;114659;-81
2023/10/25 05:43:34;;;;;;;1.87;1.67;;;12.50;99.40;;;12.72;65.51;97414.94;4957451;28;124396;-82
2023/10/25 05:46:00;;;;;;;2.00;1.67;;;15.20;99.90;;;12.71;65.89;97407.81;4950178;28;124448;-84
2023/10/25 05:48:30;;;;;;;3.23;1.93;;;12.50;99.40;;;12.71;65.85;97416.13;4957473;28;115066;-81
2023/10/25 05:51:06;;;;;;;2.13;1.73;;;12.50;99.40;;;12.70;65.54;97413.69;4954767;28;114352;-80
2023/10/25 05:53:33;;;;;;;3.10;2.37;;;12.50;99.40;;;12.69;65.86;97414.88;4956223;28;124507;-84
2023/10/25 05:56:01;;;;;;;2.03;1.80;;;12.50;99.40;;;12.69;65.86;97425.94;4965152;28;123128;-83
2023/10/25 05:58:28;;;;;;;3.67;1.90;;;12.50;99.40;;;12.69;65.68;97417.63;4991813;28;114068;-81
2023/10/25 06:00:55;;;;;;;3.10;2.40;;;12.50;99.40;;;12.68;65.66;97421.56;4959548;28;113464;-81
2023/10/25 06:03:24;;;;;;;3.20;2.40;;;12.50;99.40;;;12.65;65.92;97417.53;4959209;28;123973;-82
2023/10/25 06:05:52;;;;;;;2.77;2.00;;;12.50;99.60;;;12.64;65.87;97415.16;4949439;28;123873;-80
2023/10/25 06:08:21;;;;;;;2.00;1.80;;;12.40;99.30;;;12.62;65.75;97415.50;4984499;28;114313;-82
2023/10/25 06:10:48;;;;;;;2.00;1.70;;;12.40;99.30;;;12.63;65.65;97414.34;4955479;28;114037;-81
2023/10/25 06:13:18;;;;;;;2.70;2.00;;;12.40;99.30;;;12.64;65.80;97413.16;4960749;28;124072;-82
2023/10/25 06:15:45;;;;;;;2.60;2.23;;;12.40;99.30;;;12.65;65.81;97405.66;4954708;28;123641;-83
2023/10/25 06:18:14;;;;;;;2.87;2.30;;;13.10;99.70;;;12.68;65.89;97407.69;4948691;28;114314;-81
2023/10/25 06:20:42;;;;;;;3.10;2.13;;;12.40;99.40;;;12.69;65.74;97407.34;4959830;28;114371;-81
2023/10/25 06:23:08;;;;;;;2.63;2.00;;;12.50;99.40;;;12.70;65.75;97402.59;4951016;28;124098;-80
2023/10/25 06:25:35;;;;;;;3.07;2.40;;;14.80;99.90;;;12.72;65.82;97400.28;4953927;28;125823;-80
2023/10/25 06:28:01;;;;;;;2.60;1.97;;;13.70;99.90;;;12.73;65.97;97397.13;4960735;28;114508;-83
2023/10/25 06:30:31;;;;;;;3.70;2.30;;;12.50;99.50;;;12.75;65.70;97386.50;4959543;28;114204;-87
2023/10/25 06:33:00;;;;;;;2.67;1.90;;;12.50;99.50;;;12.77;65.85;97392.50;4959104;28;124624;-78
2023/10/25 06:35:27;;;;;;;2.77;2.37;;;14.20;99.90;;;12.80;65.82;97377.09;4992607;28;123542;-81
2023/10/25 06:37:54;;;;;;;3.00;2.40;;;14.70;99.90;;;12.81;65.83;97376.75;4970106;28;115227;-86
2023/10/25 06:40:21;;;;;;;2.63;2.10;;;12.50;99.50;;;12.80;65.81;97389.00;4973047;28;114413;-82
2023/10/25 06:42:54;;;;;;;8.20;3.00;;;12.50;99.70;;;12.80;65.63;97377.09;4972732;28;123385;-82
2023/10/25 06:45:21;;;;;;;2.83;2.27;;;12.50;99.40;;;12.80;65.82;97377.91;4965198;28;124533;-80
2023/10/25 06:47:48;;;;;;;2.40;2.20;;;11.00;98.80;;;12.82;65.90;97388.66;4964824;28;114276;-88
2023/10/25 06:50:15;;;;;;;2.03;1.83;;;12.60;99.50;;;12.89;65.83;97376.91;4967203;28;114228;-80
2023/10/25 06:52:42;;;;;;;3.23;2.20;;;12.60;99.50;;;12.95;65.72;97375.44;4966787;28;124391;-80
2023/10/25 06:55:17;;;;;;;2.93;2.40;;;12.60;99.50;;;13.03;65.79;97371.69;4953955;28;122361;-81
2023/10/25 06:57:44;;;;;;;3.07;2.40;;;12.70;99.60;;;13.09;65.30;97369.41;4967990;28;114280;-82
2023/10/25 07:00:14;;;;;;;3.23;2.10;;;12.80;99.60;;;13.13;65.18;97367.50;4950919;28;113815;-88
2023/10/25 07:02:56;;;;;;;4.47;2.40;;;12.80;99.50;;;13.20;65.13;97365.69;4962331;28;123685;-86
2023/10/25 07:05:23;;;;;;;2.93;2.13;;;12.80;99.50;;;13.26;64.97;97355.94;4955985;28;124048;-81
2023/10/25 07:07:54;;;;;;;3.67;2.80;;;12.80;99.40;;;13.32;64.89;97353.66;4954642;28;114304;-84
2023/10/25 07:10:23;;;;;;;3.37;2.70;;;12.90;99.50;;;13.37;64.75;97342.28;4982972;28;113514;-84
2023/10/25 07:12:50;;;;;;;4.07;2.47;;;13.00;99.50;;;13.43;64.77;97335.28;4955772;28;123855;-85
2023/10/25 07:15:18;;;;;;;2.87;2.10;;;13.00;99.40;;;13.49;64.61;97333.00;4964096;28;123496;-86
2023/10/25 07:17:45;;;;;;;3.13;2.60;;;13.10;99.40;;;13.55;64.50;97334.28;4958311;28;115089;-86
2023/10/25 07:20:12;;;;;;;3.40;2.47;;;13.10;99.30;;;13.61;64.35;97323.69;4960780;28;113047;-83
2023/10/25 07:22:40;;;;;;;2.60;2.40;;;13.20;99.30;;;13.66;64.16;97315.84;4957914;28;124113;-87
2023/10/25 07:25:09;;;;;;;3.77;2.37;;;13.20;99.20;;;13.74;64.29;97313.22;4987116;28;124331;-86
2023/10/25 07:27:39;;;;;;;4.67;2.80;;;15.40;99.90;;;13.80;64.12;97317.28;4945407;28;115287;-82
2023/10/25 07:30:06;;;;;;;3.90;2.50;;;13.40;99.30;;;13.87;64.19;97311.88;4957660;28;114935;-86
2023/10/25 07:32:35;;;;;;;3.27;2.60;;;13.40;99.20;;;13.91;63.98;97321.84;4953225;28;124139;-85
2023/10/25 07:35:02;;;;;;;2.63;2.40;;;13.50;99.20;;;13.95;63.78;97321.91;4950997;28;123758;-87
2023/10/25 07:37:29;;;;;;;3.30;2.77;;;13.50;99.10;;;14.01;63.80;97319.63;4940173;28;114467;-83
2023/10/25 07:39:55;;;;;;;3.33;2.60;;;13.60;99.10;;;14.05;63.68;97324.06;4971681;28;113957;-83
2023/10/25 07:42:22;;;;;;;2.47;2.13;;;13.90;99.20;;;14.09;63.71;97322.13;4935834;28;124054;-86
2023/10/25 07:44:48;;;;;;;3.23;2.70;;;13.60;99.00;;;14.13;63.40;97317.47;4942730;28;123911;-83
2023/10/25 07:47:17;;;;;;;2.30;2.10;;;13.70;99.00;;;14.15;63.45;97315.09;4946042;28;115045;-84
2023/10/25 07:49:46;;;;;;;4.20;2.50;;;13.60;98.90;;;14.20;63.43;97310.41;4926469;28;113235;-82
2023/10/25 07:52:17;;;;;;;4.00;2.40;;;13.70;98.90;;;14.23;63.17;97315.22;4941908;28;124111;-85
2023/10/25 07:54:43;;;;;;;3.20;2.63;;;13.80;98.90;;;14.24;63.38;97311.25;4954538;28;123613;-83
2023/10/25 07:57:10;;;;;;;2.53;2.00;;;13.80;98.80;;;14.23;63.14;97304.09;4954662;28;114594;-87
2023/10/25 07:59:38;;;;;;;2.43;2.23;;;15.30;99.30;;;14.21;63.12;97306.44;4951034;28;114067;-85
2023/10/25 08:02:04;;;;;;;3.97;2.03;;;13.90;98.70;;;14.19;63.29;97308.81;4961325;28;124693;-86
2023/10/25 08:04:33;;;;;;;2.93;2.20;;;14.20;98.80;;;14.21;63.26;97300.88;4967125;28;122827;-84
2023/10/25 08:07:02;;;;;;;3.93;2.13;;;13.90;98.70;;;14.21;63.38;97284.22;4968742;28;114383;-84
2023/10/25 08:09:30;;;;;;;2.60;2.40;;;13.90;98.70;;;14.22;63.49;97281.09;4953722;28;113461;-85
2023/10/25 08:11:58;;;;;;;2.80;2.20;;;14.00;98.70;;;14.25;63.35;97279.53;4951847;28;124084;-88
2023/10/25 08:14:28;;;;;;;2.80;2.27;;;13.90;98.70;;;14.29;63.28;97275.63;4954429;28;122267;-85
2023/10/25 08:16:54;;;;;;;2.20;1.77;;;14.20;98.80;;;14.35;63.31;97290.00;4948947;28;115451;-84
2023/10/25 08:19:21;;;;;;;2.90;2.30;;;14.20;98.80;;;14.42;63.09;97278.97;4948435;28;114902;-85
2023/10/25 08:21:47;;;;;;;2.60;2.00;;;14.10;98.70;;;14.51;62.96;97271.19;4940790;28;123732;-85
2023/10/25 08:24:16;;;;;;;4.10;2.70;;;14.10;98.70;;;14.56;62.98;97262.56;4952001;28;123597;-85
2023/10/25 08:26:45;;;;;;;2.70;2.30;;;14.20;98.70;;;14.62;62.62;97262.22;4949322;28;114318;-86
2023/10/25 08:29:20;;;;;;;3.20;2.13;;;14.20;98.60;;;14.66;62.84;97266.63;4956190;28;114058;-85
2023/10/25 08:31:46;;;;;;;4.30;2.50;;;16.70;99.70;;;14.69;62.69;97268.66;4953647;28;124140;-82
2023/10/25 08:34:13;;;;;;;4.83;2.40;;;14.30;98.60;;;14.71;62.61;97263.53;4959027;28;123974;-85
2023/10/25 08:36:39;;;;;;;4.17;2.67;;;14.50;98.60;;;14.77;62.53;97267.56;4960155;28;114403;-85
2023/10/25 08:39:06;;;;;;;2.40;2.20;;;14.50;98.60;;;14.79;62.66;97254.09;4965692;28;113003;-83
2023/10/25 08:41:35;;;;;;;4.50;2.17;;;14.40;98.50;;;14.82;62.41;97248.97;4950721;28;124668;-84
2023/10/25 08:44:03;;;;;;;4.23;2.27;;;15.90;99.10;;;14.86;62.48;97250.63;4960841;28;123909;-86
2023/10/25 08:46:36;;;;;;;2.17;1.97;;;14.50;98.50;;;14.91;62.40;97250.28;4958390;28;114397;-85
2023/10/25 08:49:05;;;;;;;3.50;2.40;;;14.50;98.40;;;14.95;62.19;97250.31;4969530;28;113730;-84
2023/10/25 08:51:35;;;;;;;5.20;2.40;;;14.60;98.50;;;14.99;62.40;97257.53;4973562;28;123845;-84
2023/10/25 08:54:01;;;;;;;2.53;2.03;;;15.80;98.90;;;15.00;62.39;97247.19;4947828;28;123381;-83
2023/10/25 08:56:28;;;;;;;3.93;2.03;;;14.60;98.40;;;15.01;62.32;97243.22;4963323;28;114138;-84
2023/10/25 08:59:01;;;;;;;3.20;2.40;;;14.60;98.30;;;15.03;62.38;97240.88;4967944;28;112980;-83
2023/10/25 09:01:30;;;;;;;4.03;2.40;;;14.70;98.40;;;15.06;62.36;97234.53;4950323;28;124016;-83
2023/10/25 09:04:07;;;;;;;4.40;2.03;;;14.70;98.40;;;15.10;62.32;97235.41;4949887;28;122780;-85
2023/10/25 09:06:38;;;;;;;6.57;2.67;;;14.80;98.40;;;15.13;62.25;97233.84;4977285;28;115206;-82
2023/10/25 09:09:08;;;;;;;3.40;2.20;;;15.00;98.50;;;15.13;62.09;97233.84;4958858;28;114852;-83
2023/10/25 09:11:46;;;;;;;3.27;2.27;;;14.80;98.30;;;15.12;61.81;97237.78;4948366;28;126436;-84
2023/10/25 09:14:13;;;;;;;4.73;2.57;;;14.70;98.10;;;15.06;61.71;97228.19;4960811;28;123824;-85
2023/10/25 09:16:42;;;;;;;3.03;2.20;;;14.70;98.00;;;15.01;61.69;97224.56;4954673;28;114126;-86
2023/10/25 09:19:10;;;;;;;3.10;2.37;;;14.70;98.00;;;14.99;62.00;97224.16;4963215;28;113888;-86
2023/10/25 09:21:37;;;;;;;2.70;2.30;;;14.70;98.00;;;14.97;62.28;97215.38;4985553;28;124172;-84
2023/10/25 09:24:07;;;;;;;3.43;2.50;;;14.70;98.10;;;14.98;62.32;97211.41;4950590;28;123892;-84
2023/10/25 09:26:37;;;;;;;2.57;2.27;;;14.70;98.20;;;14.97;62.59;97215.38;4946457;28;113815;-84
2023/10/25 09:29:03;;;;;;;2.90;2.03;;;15.60;98.70;;;14.99;62.78;97207.47;4957427;28;114180;-84
2023/10/25 09:31:34;;;;;;;2.77;2.07;;;14.70;98.40;;;15.00;62.55;97211.84;4951241;28;123880;-82
2023/10/25 09:34:03;;;;;;;3.60;2.10;;;14.70;98.40;;;15.03;62.93;97207.50;4958355;28;124264;-84
2023/10/25 09:36:32;;;;;;;2.00;1.80;;;14.70;98.40;;;15.05;62.93;97204.34;4956747;28;113424;-84
2023/10/25 09:38:59;;;;;;;2.43;2.13;;;14.70;98.50;;;15.04;63.27;97197.97;4962985;28;114317;-84
2023/10/25 09:41:29;;;;;;;4.20;2.37;;;14.80;98.60;;;15.03;63.21;97202.72;4965320;28;124075;-82
2023/10/25 09:44:04;;;;;;;2.70;1.93;;;14.80;98.60;;;15.07;63.08;97193.63;4948964;28;124120;-81
2023/10/25 09:46:34;;;;;;;3.00;2.27;;;14.80;98.70;;;15.09;63.41;97182.91;4950024;28;113365;-82
2023/10/25 09:49:09;;;;;;;3.93;2.37;;;14.80;98.70;;;15.14;63.06;97185.34;4957847;28;113876;-81
2023/10/25 09:52:00;;;;;;;3.10;2.20;;;14.90;98.80;;;15.18;63.20;97180.63;4966689;28;123746;-82
2023/10/25 09:54:50;;;;;;;2.27;1.93;;;14.90;98.70;;;15.20;63.06;97175.47;4948212;28;124054;-81
2023/10/25 09:57:21;;;;;;;2.40;1.80;;;15.00;98.80;;;15.26;63.02;97179.53;4949881;28;115276;-84
2023/10/25 09:59:51;;;;;;;3.07;1.80;;;14.90;98.70;;;15.31;63.03;97176.34;4965606;28;114887;-82
2023/10/25 10:02:36;;;;;;;6.00;1.87;;;15.00;98.70;;;15.36;62.92;97167.66;4962306;28;124415;-84
2023/10/25 10:05:30;;;;;;;2.03;1.77;;;15.00;98.70;;;15.41;62.91;97161.75;4950870;28;123745;-84
2023/10/25 10:08:09;;;;;;;2.73;2.00;;;17.60;99.80;;;15.44;62.63;97157.41;4961986;28;114173;-83
2023/10/25 10:10:57;;;;;;;2.90;2.20;;;15.10;98.60;;;15.45;62.25;97165.38;4959020;28;114094;-81
2023/10/25 10:13:26;;;;;;;2.60;2.27;;;15.10;98.50;;;15.45;62.51;97159.81;4963313;28;124409;-82
2023/10/25 10:16:09;;;;;;;3.53;1.87;;;15.10;98.40;;;15.48;62.29;97151.88;4962247;28;124147;-84
2023/10/25 10:18:42;;;;;;;2.67;1.93;;;15.20;98.50;;;15.51;62.35;97146.31;4963829;28;115177;-81